sensor_id;sensor_type;location;lat;lon;timestamp;P1;durP1;ratioP1;P2;durP2;ratioP2
43861;SDS011;29510;52.140;5.034;2024-03-02T00:05:56;3.45;;;1.10;;
43861;SDS011;29510;52.140;5.034;2024-03-02T00:15:57;1.30;;;0.25;;
43861;SDS011;29510;52.140;5.034;2024-03-02T00:25:58;0.60;;;0.10;;
43861;SDS011;29510;52.140;5.034;2024-03-02T00:36:00;0.93;;;0.20;;
43861;SDS011;29510;52.140;5.034;2024-03-02T00:46:03;0.60;;;0.20;;
43861;SDS011;29510;52.140;5.034;2024-03-02T00:56:03;1.95;;;0.20;;
43861;SDS011;29510;52.140;5.034;2024-03-02T01:06:09;0.38;;;0.20;;
43861;SDS011;29510;52.140;5.034;2024-03-02T01:16:09;1.17;;;0.57;;
43861;SDS011;29510;52.140;5.034;2024-03-02T01:26:10;0.82;;;0.30;;
43861;SDS011;29510;52.140;5.034;2024-03-02T01:36:10;1.13;;;0.43;;
43861;SDS011;29510;52.140;5.034;2024-03-02T01:46:11;2.03;;;0.60;;
43861;SDS011;29510;52.140;5.034;2024-03-02T01:56:12;1.47;;;0.50;;
43861;SDS011;29510;52.140;5.034;2024-03-02T02:06:12;2.50;;;0.60;;
43861;SDS011;29510;52.140;5.034;2024-03-02T02:16:13;1.08;;;0.50;;
43861;SDS011;29510;52.140;5.034;2024-03-02T02:26:14;1.30;;;0.50;;
43861;SDS011;29510;52.140;5.034;2024-03-02T02:36:15;1.88;;;0.50;;
43861;SDS011;29510;52.140;5.034;2024-03-02T02:46:15;2.15;;;0.52;;
43861;SDS011;29510;52.140;5.034;2024-03-02T02:56:16;1.92;;;0.70;;
43861;SDS011;29510;52.140;5.034;2024-03-02T03:06:17;3.22;;;0.80;;
43861;SDS011;29510;52.140;5.034;2024-03-02T03:16:17;2.42;;;0.70;;
43861;SDS011;29510;52.140;5.034;2024-03-02T03:26:18;1.17;;;0.35;;
43861;SDS011;29510;52.140;5.034;2024-03-02T03:36:18;1.97;;;0.50;;
43861;SDS011;29510;52.140;5.034;2024-03-02T03:46:19;1.75;;;0.65;;
43861;SDS011;29510;52.140;5.034;2024-03-02T03:56:20;1.10;;;0.40;;
43861;SDS011;29510;52.140;5.034;2024-03-02T04:06:20;0.90;;;0.50;;
43861;SDS011;29510;52.140;5.034;2024-03-02T04:16:21;2.53;;;0.47;;
43861;SDS011;29510;52.140;5.034;2024-03-02T04:26:21;3.00;;;0.70;;
43861;SDS011;29510;52.140;5.034;2024-03-02T04:36:22;1.58;;;0.40;;
43861;SDS011;29510;52.140;5.034;2024-03-02T04:46:23;1.05;;;0.55;;
43861;SDS011;29510;52.140;5.034;2024-03-02T04:56:24;1.63;;;0.40;;
43861;SDS011;29510;52.140;5.034;2024-03-02T05:06:31;2.37;;;0.43;;
43861;SDS011;29510;52.140;5.034;2024-03-02T05:16:35;1.73;;;0.30;;
43861;SDS011;29510;52.140;5.034;2024-03-02T05:26:38;2.13;;;0.43;;
43861;SDS011;29510;52.140;5.034;2024-03-02T05:36:38;1.75;;;0.60;;
43861;SDS011;29510;52.140;5.034;2024-03-02T05:46:39;1.25;;;0.38;;
43861;SDS011;29510;52.140;5.034;2024-03-02T05:56:40;3.45;;;0.60;;
43861;SDS011;29510;52.140;5.034;2024-03-02T06:06:40;2.22;;;0.45;;
43861;SDS011;29510;52.140;5.034;2024-03-02T06:16:41;1.83;;;0.47;;
43861;SDS011;29510;52.140;5.034;2024-03-02T06:26:42;2.90;;;0.77;;
43861;SDS011;29510;52.140;5.034;2024-03-02T06:36:43;1.38;;;0.50;;
43861;SDS011;29510;52.140;5.034;2024-03-02T06:46:43;4.47;;;0.73;;
43861;SDS011;29510;52.140;5.034;2024-03-02T06:56:44;2.25;;;0.47;;
43861;SDS011;29510;52.140;5.034;2024-03-02T07:06:44;1.20;;;0.40;;
43861;SDS011;29510;52.140;5.034;2024-03-02T07:16:47;4.40;;;0.47;;
43861;SDS011;29510;52.140;5.034;2024-03-02T07:26:47;2.33;;;0.57;;
43861;SDS011;29510;52.140;5.034;2024-03-02T07:36:48;2.30;;;0.40;;
43861;SDS011;29510;52.140;5.034;2024-03-02T07:46:49;1.80;;;0.38;;
43861;SDS011;29510;52.140;5.034;2024-03-02T07:56:52;3.67;;;0.65;;
43861;SDS011;29510;52.140;5.034;2024-03-02T08:06:53;2.17;;;0.60;;
43861;SDS011;29510;52.140;5.034;2024-03-02T08:21:43;3.38;;;0.50;;
43861;SDS011;29510;52.140;5.034;2024-03-02T08:31:45;4.22;;;0.60;;
43861;SDS011;29510;52.140;5.034;2024-03-02T08:41:45;3.05;;;0.52;;
43861;SDS011;29510;52.140;5.034;2024-03-02T08:51:46;2.10;;;0.40;;
43861;SDS011;29510;52.140;5.034;2024-03-02T09:01:54;4.22;;;0.75;;
43861;SDS011;29510;52.140;5.034;2024-03-02T09:11:55;4.30;;;0.50;;
43861;SDS011;29510;52.140;5.034;2024-03-02T09:21:57;6.32;;;0.80;;
43861;SDS011;29510;52.140;5.034;2024-03-02T09:31:58;2.90;;;0.50;;
43861;SDS011;29510;52.140;5.034;2024-03-02T09:41:59;3.67;;;0.68;;
43861;SDS011;29510;52.140;5.034;2024-03-02T09:52:00;5.10;;;0.57;;
43861;SDS011;29510;52.140;5.034;2024-03-02T10:02:01;4.80;;;0.60;;
43861;SDS011;29510;52.140;5.034;2024-03-02T10:12:03;5.43;;;0.80;;
43861;SDS011;29510;52.140;5.034;2024-03-02T10:22:05;4.78;;;0.90;;
43861;SDS011;29510;52.140;5.034;2024-03-02T10:32:09;5.45;;;0.98;;
43861;SDS011;29510;52.140;5.034;2024-03-02T10:42:13;3.47;;;0.68;;
43861;SDS011;29510;52.140;5.034;2024-03-02T10:52:14;3.88;;;0.68;;
43861;SDS011;29510;52.140;5.034;2024-03-02T11:02:15;4.00;;;0.77;;
43861;SDS011;29510;52.140;5.034;2024-03-02T11:12:23;2.78;;;0.68;;
43861;SDS011;29510;52.140;5.034;2024-03-02T11:22:29;5.55;;;1.00;;
43861;SDS011;29510;52.140;5.034;2024-03-02T11:32:30;4.32;;;0.52;;
43861;SDS011;29510;52.140;5.034;2024-03-02T11:42:30;6.43;;;0.80;;
43861;SDS011;29510;52.140;5.034;2024-03-02T11:52:31;4.53;;;0.60;;
43861;SDS011;29510;52.140;5.034;2024-03-02T12:02:31;5.20;;;0.63;;
43861;SDS011;29510;52.140;5.034;2024-03-02T12:12:32;1.67;;;0.57;;
43861;SDS011;29510;52.140;5.034;2024-03-02T12:22:33;3.35;;;1.10;;
43861;SDS011;29510;52.140;5.034;2024-03-02T12:32:33;3.13;;;0.47;;
43861;SDS011;29510;52.140;5.034;2024-03-02T12:42:34;3.75;;;0.60;;
43861;SDS011;29510;52.140;5.034;2024-03-02T12:52:35;4.65;;;0.50;;
43861;SDS011;29510;52.140;5.034;2024-03-02T13:02:36;2.67;;;0.75;;
43861;SDS011;29510;52.140;5.034;2024-03-02T13:12:40;2.75;;;0.80;;
43861;SDS011;29510;52.140;5.034;2024-03-02T13:22:41;4.18;;;0.70;;
43861;SDS011;29510;52.140;5.034;2024-03-02T13:32:41;3.75;;;0.70;;
43861;SDS011;29510;52.140;5.034;2024-03-02T13:42:42;5.72;;;0.75;;
43861;SDS011;29510;52.140;5.034;2024-03-02T13:52:43;4.25;;;0.70;;
43861;SDS011;29510;52.140;5.034;2024-03-02T14:02:45;2.65;;;0.60;;
43861;SDS011;29510;52.140;5.034;2024-03-02T14:12:46;6.40;;;2.15;;
43861;SDS011;29510;52.140;5.034;2024-03-02T14:22:47;5.22;;;1.50;;
43861;SDS011;29510;52.140;5.034;2024-03-02T14:32:48;4.50;;;0.82;;
43861;SDS011;29510;52.140;5.034;2024-03-02T14:42:49;2.97;;;0.97;;
43861;SDS011;29510;52.140;5.034;2024-03-02T14:52:49;3.92;;;1.00;;
43861;SDS011;29510;52.140;5.034;2024-03-02T15:02:50;3.00;;;1.00;;
43861;SDS011;29510;52.140;5.034;2024-03-02T15:12:51;3.45;;;0.88;;
43861;SDS011;29510;52.140;5.034;2024-03-02T15:22:52;4.68;;;1.10;;
43861;SDS011;29510;52.140;5.034;2024-03-02T15:32:52;2.95;;;1.35;;
43861;SDS011;29510;52.140;5.034;2024-03-02T15:42:53;1.92;;;0.63;;
43861;SDS011;29510;52.140;5.034;2024-03-02T15:52:53;4.57;;;1.00;;
43861;SDS011;29510;52.140;5.034;2024-03-02T16:02:57;4.25;;;0.90;;
43861;SDS011;29510;52.140;5.034;2024-03-02T16:12:58;1.77;;;0.70;;
43861;SDS011;29510;52.140;5.034;2024-03-02T16:23:00;4.30;;;0.90;;
43861;SDS011;29510;52.140;5.034;2024-03-02T16:33:00;3.45;;;0.77;;
43861;SDS011;29510;52.140;5.034;2024-03-02T16:43:01;4.18;;;0.90;;
43861;SDS011;29510;52.140;5.034;2024-03-02T16:53:01;1.85;;;0.60;;
43861;SDS011;29510;52.140;5.034;2024-03-02T17:03:03;5.07;;;0.90;;
43861;SDS011;29510;52.140;5.034;2024-03-02T17:13:04;5.13;;;1.10;;
43861;SDS011;29510;52.140;5.034;2024-03-02T17:23:05;4.20;;;1.13;;
43861;SDS011;29510;52.140;5.034;2024-03-02T17:33:07;4.10;;;1.20;;
43861;SDS011;29510;52.140;5.034;2024-03-02T17:43:08;3.13;;;1.23;;
43861;SDS011;29510;52.140;5.034;2024-03-02T17:53:09;4.65;;;1.60;;
43861;SDS011;29510;52.140;5.034;2024-03-02T18:03:09;4.00;;;1.50;;
43861;SDS011;29510;52.140;5.034;2024-03-02T18:13:10;4.93;;;1.27;;
43861;SDS011;29510;52.140;5.034;2024-03-02T18:23:10;2.78;;;1.60;;
43861;SDS011;29510;52.140;5.034;2024-03-02T18:33:12;5.25;;;2.35;;
43861;SDS011;29510;52.140;5.034;2024-03-02T18:43:13;4.32;;;2.10;;
43861;SDS011;29510;52.140;5.034;2024-03-02T18:53:14;3.45;;;2.08;;
43861;SDS011;29510;52.140;5.034;2024-03-02T19:03:15;3.00;;;1.80;;
43861;SDS011;29510;52.140;5.034;2024-03-02T19:13:16;5.10;;;2.35;;
43861;SDS011;29510;52.140;5.034;2024-03-02T19:23:17;5.28;;;2.88;;
43861;SDS011;29510;52.140;5.034;2024-03-02T19:33:17;5.18;;;2.53;;
43861;SDS011;29510;52.140;5.034;2024-03-02T19:43:18;5.60;;;2.63;;
43861;SDS011;29510;52.140;5.034;2024-03-02T19:53:20;3.55;;;2.30;;
43861;SDS011;29510;52.140;5.034;2024-03-02T20:03:21;5.32;;;2.75;;
43861;SDS011;29510;52.140;5.034;2024-03-02T20:13:22;4.50;;;2.58;;
43861;SDS011;29510;52.140;5.034;2024-03-02T20:23:23;5.68;;;2.20;;
43861;SDS011;29510;52.140;5.034;2024-03-02T20:33:23;4.40;;;2.15;;
43861;SDS011;29510;52.140;5.034;2024-03-02T20:43:24;4.90;;;2.10;;
43861;SDS011;29510;52.140;5.034;2024-03-02T20:53:25;4.78;;;2.33;;
43861;SDS011;29510;52.140;5.034;2024-03-02T21:03:26;4.70;;;2.78;;
43861;SDS011;29510;52.140;5.034;2024-03-02T21:13:26;6.95;;;4.70;;
43861;SDS011;29510;52.140;5.034;2024-03-02T21:23:27;6.53;;;3.25;;
43861;SDS011;29510;52.140;5.034;2024-03-02T21:33:30;5.35;;;3.50;;
43861;SDS011;29510;52.140;5.034;2024-03-02T21:43:31;6.25;;;3.30;;
43861;SDS011;29510;52.140;5.034;2024-03-02T21:53:33;8.38;;;3.97;;
43861;SDS011;29510;52.140;5.034;2024-03-02T22:03:33;6.95;;;3.97;;
43861;SDS011;29510;52.140;5.034;2024-03-02T22:13:35;5.50;;;3.40;;
43861;SDS011;29510;52.140;5.034;2024-03-02T22:23:36;5.90;;;3.80;;
43861;SDS011;29510;52.140;5.034;2024-03-02T22:33:38;6.03;;;3.67;;
43861;SDS011;29510;52.140;5.034;2024-03-02T22:43:38;6.57;;;3.88;;
43861;SDS011;29510;52.140;5.034;2024-03-02T22:53:39;7.07;;;3.58;;
43861;SDS011;29510;52.140;5.034;2024-03-02T23:03:39;5.55;;;3.45;;
43861;SDS011;29510;52.140;5.034;2024-03-02T23:13:40;5.32;;;3.08;;
43861;SDS011;29510;52.140;5.034;2024-03-02T23:23:41;3.95;;;2.53;;
43861;SDS011;29510;52.140;5.034;2024-03-02T23:33:41;3.80;;;2.55;;
43861;SDS011;29510;52.140;5.034;2024-03-02T23:43:42;3.83;;;2.00;;
43861;SDS011;29510;52.140;5.034;2024-03-02T23:53:42;4.60;;;2.42;;
